Linzy — SIRU — position and weather

sailwx.info

Track history (hours):
 
Tides and Currents Weather Stations Pressure Air Temp Water Temp Dewpoint Dewpoint Depression Visibility Wind Speed Wind Dir Waves Ship Positions

Linzy

Last reported at 2016-Feb-13 10:33 UTC. Time now 2016-Feb-13 10:58 UTC.
Position N 55°33' E 014°22'.

Length 15 m.

Type: Fishing. MMSI: 265507290.

Date/timePositionNaut miles runAvg speedWind from/ knotsBaromVisibWave heightAir tempDewpointWater temp
2016-Feb-13 10:33N 55°33' E 014°22'0 0.0
2016-Feb-13 09:33N 55°33' E 014°22'0 0.0
2016-Feb-13 08:33N 55°33' E 014°22'0 0.0
2016-Feb-13 07:33N 55°33' E 014°22'0 0.0
2016-Feb-13 06:21N 55°33' E 014°22'0 0.0
2016-Feb-13 05:27N 55°33' E 014°22'0 0.0
2016-Feb-13 04:33N 55°33' E 014°22'0 0.0
2016-Feb-13 03:33N 55°33' E 014°22'0 0.0
2016-Feb-13 02:33N 55°33' E 014°22'0 0.0
2016-Feb-13 01:33N 55°33' E 014°22'0 0.0
2016-Feb-13 00:33N 55°33' E 014°22'0 0.0
2016-Feb-12 23:33N 55°33' E 014°22'0 0.0
2016-Feb-12 22:27N 55°33' E 014°22'0 0.0
2016-Feb-12 21:33N 55°33' E 014°22'0 0.0
2016-Feb-12 20:27N 55°33' E 014°22'0 0.0
2016-Feb-12 19:21N 55°33' E 014°22'0 0.0
2016-Feb-12 18:33N 55°33' E 014°22'0 0.0
2016-Feb-12 17:33N 55°33' E 014°22'0 0.0
2016-Feb-12 16:33N 55°33' E 014°22'0 0.0
2016-Feb-12 15:09N 55°33' E 014°22'0 0.0
2016-Feb-12 14:21N 55°33' E 014°22'0 0.0
2016-Feb-12 13:33N 55°33' E 014°22'0 0.0
2016-Feb-12 12:33N 55°33' E 014°22'0 0.0
2016-Feb-12 11:33N 55°33' E 014°22'0 0.0
2016-Feb-12 10:33N 55°33' E 014°22'0 0.0
2016-Feb-12 09:33N 55°33' E 014°22'0 0.0
2016-Feb-12 08:33N 55°33' E 014°22'0 0.0
2016-Feb-12 07:33N 55°33' E 014°22'0 0.0
2016-Feb-12 06:27N 55°33' E 014°22'0 0.0
2016-Feb-12 05:33N 55°33' E 014°22'0 0.0
2016-Feb-12 04:33N 55°33' E 014°22'0 0.0
2016-Feb-12 03:33N 55°33' E 014°22'0 0.0
2016-Feb-12 02:33N 55°33' E 014°22'0 0.0
2016-Feb-12 01:33N 55°33' E 014°22'0 0.0
2016-Feb-12 00:33N 55°33' E 014°22'0 0.0
2016-Feb-11 23:33N 55°33' E 014°22'0 0.0
2016-Feb-11 22:27N 55°33' E 014°22'0 0.0
2016-Feb-11 21:33N 55°33' E 014°22'0 0.0
2016-Feb-11 20:33N 55°33' E 014°22'0 0.0
2016-Feb-11 19:27N 55°33' E 014°22'0 0.0
2016-Feb-11 18:33N 55°33' E 014°22'1 0.6
2016-Feb-11 17:33N 55°34' E 014°22'7 7.4
2016-Feb-11 16:33N 55°35' E 014°35'2 1.9
2016-Feb-11 15:33N 55°34' E 014°38'3 2.9
2016-Feb-11 14:33N 55°33' E 014°43'3 2.9
2016-Feb-11 13:33N 55°32' E 014°47'3 3.0
2016-Feb-11 12:33N 55°30' E 014°52'3 3.0
2016-Feb-11 11:33N 55°30' E 014°57'2 1.8
2016-Feb-11 10:20N 55°29' E 014°54'2 3.1
2016-Feb-11 09:33N 55°30' E 014°50'3 3.1
2016-Feb-11 08:33N 55°31' E 014°45'3 3.2
2016-Feb-11 07:31N 55°33' E 014°40'2 2.5
2016-Feb-11 06:32N 55°35' E 014°37'5 4.9
2016-Feb-11 05:33N 55°34' E 014°29'4 4.1
2016-Feb-11 04:33N 55°33' E 014°22'0 0.0
2016-Feb-11 03:33N 55°33' E 014°22'0 0.0
2016-Feb-11 02:27N 55°33' E 014°22'0 0.0
2016-Feb-11 01:15N 55°33' E 014°22'0 0.0
2016-Feb-11 00:33N 55°33' E 014°22'0 0.0
2016-Feb-10 23:33N 55°33' E 014°22'0 0.0
2016-Feb-10 22:33N 55°33' E 014°22'0 0.0
2016-Feb-10 21:27N 55°33' E 014°22'0 0.0
2016-Feb-10 20:33N 55°33' E 014°22'0 0.0
2016-Feb-10 19:27N 55°33' E 014°22'0 0.0
2016-Feb-10 18:33N 55°33' E 014°22'0 0.0
2016-Feb-10 17:33N 55°33' E 014°22'0 0.0
2016-Feb-10 16:33N 55°33' E 014°22'0 0.0
2016-Feb-10 15:33N 55°33' E 014°22'0 0.0
2016-Feb-10 14:27N 55°33' E 014°22'0 0.0
2016-Feb-10 13:33N 55°33' E 014°22'0 0.0
2016-Feb-10 12:21N 55°33' E 014°22'0 0.0
2016-Feb-10 11:33N 55°33' E 014°22'0 0.0
2016-Feb-10 10:33N 55°33' E 014°22'0 0.0
2016-Feb-10 09:27N 55°33' E 014°22'0 0.0
2016-Feb-10 08:27N 55°33' E 014°22'0 0.0
2016-Feb-10 07:27N 55°33' E 014°22'0 0.0
2016-Feb-10 06:27N 55°33' E 014°22'0 0.0
2016-Feb-10 05:33N 55°33' E 014°22'0 0.0
2016-Feb-10 04:21N 55°33' E 014°22'0 0.0
2016-Feb-10 03:33N 55°33' E 014°22'0 0.0
2016-Feb-10 02:33N 55°33' E 014°22'0 0.0
2016-Feb-10 01:33N 55°33' E 014°22'0 0.0
2016-Feb-10 00:27N 55°33' E 014°22'0 0.0
2016-Feb-09 23:27N 55°33' E 014°22'0 0.0
2016-Feb-09 22:33N 55°33' E 014°22'0 0.0
2016-Feb-09 21:33N 55°33' E 014°22'0 0.0
2016-Feb-09 20:27N 55°33' E 014°22'0 0.0
2016-Feb-09 19:21N 55°33' E 014°22'0 0.0
2016-Feb-09 18:27N 55°33' E 014°22'0 0.0
2016-Feb-09 17:33N 55°33' E 014°22'0 0.0
2016-Feb-09 16:33N 55°33' E 014°22'0 0.0
2016-Feb-09 15:33N 55°33' E 014°22'0 0.0
2016-Feb-09 14:33N 55°33' E 014°22'0 0.0
2016-Feb-09 13:15N 55°33' E 014°22'0 0.0
2016-Feb-09 12:21N 55°33' E 014°22'0 0.0
2016-Feb-09 11:27N 55°33' E 014°22'0 0.0
2016-Feb-09 10:09N 55°33' E 014°22'0 0.0
2016-Feb-09 09:33N 55°33' E 014°22'0 0.0
2016-Feb-09 08:21N 55°33' E 014°22'0 0.0
2016-Feb-09 07:21N 55°33' E 014°22'0 0.0
2016-Feb-09 06:33N 55°33' E 014°22'0 0.0
2016-Feb-09 05:33N 55°33' E 014°22'0 0.0
2016-Feb-09 04:33N 55°33' E 014°22'0 0.0
2016-Feb-09 03:33N 55°33' E 014°22'0 0.0
2016-Feb-09 02:33N 55°33' E 014°22'0 0.0
2016-Feb-09 01:33N 55°33' E 014°22'0 0.0
2016-Feb-09 00:33N 55°33' E 014°22'0 0.0
2016-Feb-08 23:33N 55°33' E 014°22'0 0.0
2016-Feb-08 22:33N 55°33' E 014°22'0 0.0
2016-Feb-08 21:21N 55°33' E 014°22'0 0.0
2016-Feb-08 20:33N 55°33' E 014°22'0 0.0
2016-Feb-08 19:33N 55°33' E 014°22'0 0.0
2016-Feb-08 18:27N 55°33' E 014°22'0 0.0
2016-Feb-08 17:33N 55°33' E 014°22'0 0.0
2016-Feb-08 15:27N 55°33' E 014°22'0 0.0
2016-Feb-08 14:33N 55°33' E 014°22'0 0.0
2016-Feb-08 13:21N 55°33' E 014°22'0 0.0
2016-Feb-08 12:15N 55°33' E 014°22'0 0.0
2016-Feb-08 11:27N 55°33' E 014°22'0 0.0
2016-Feb-08 10:33N 55°33' E 014°22'0 0.0
2016-Feb-08 09:16N 55°33' E 014°22'0 0.0
2016-Feb-08 08:34N 55°33' E 014°22'0 0.0
2016-Feb-08 07:34N 55°33' E 014°22'0 0.0
2016-Feb-08 06:28N 55°33' E 014°22'0 0.0
2016-Feb-08 05:22N 55°33' E 014°22'0 0.0
2016-Feb-08 04:28N 55°33' E 014°22'0 0.0
2016-Feb-08 03:28N 55°33' E 014°22'0 0.0
2016-Feb-08 02:28N 55°33' E 014°22'0 0.0
2016-Feb-08 01:28N 55°33' E 014°22'0 0.0
2016-Feb-08 00:28N 55°33' E 014°22'0 0.0
2016-Feb-07 23:28N 55°33' E 014°22'0 0.0
2016-Feb-07 22:28N 55°33' E 014°22'0 0.0
2016-Feb-07 21:28N 55°33' E 014°22'0 0.0
2016-Feb-07 20:28N 55°33' E 014°22'0 0.0
2016-Feb-07 19:28N 55°33' E 014°22'0 0.0
2016-Feb-07 18:28N 55°33' E 014°22'0 0.0
2016-Feb-07 17:28N 55°33' E 014°22'0 0.0
2016-Feb-07 16:28N 55°33' E 014°22'0 0.0
2016-Feb-07 15:28N 55°33' E 014°22'0 0.0
2016-Feb-07 14:28N 55°33' E 014°22'0 0.0
2016-Feb-07 13:28N 55°33' E 014°22'0 0.0
2016-Feb-07 11:22N 55°33' E 014°22'0 0.0
2016-Feb-07 10:22N 55°33' E 014°22'0 0.0
2016-Feb-07 09:28N 55°33' E 014°22'0 0.0
2016-Feb-07 08:16N 55°33' E 014°22'0 0.0
2016-Feb-07 07:28N 55°33' E 014°22'0 0.0
2016-Feb-07 06:28N 55°33' E 014°22'0 0.0
2016-Feb-07 05:28N 55°33' E 014°22'0 0.0
2016-Feb-07 04:28N 55°33' E 014°22'0 0.0
2016-Feb-07 03:28N 55°33' E 014°22'0 0.0
2016-Feb-07 02:28N 55°33' E 014°22'0 0.0
2016-Feb-07 01:28N 55°33' E 014°22'0 0.0
2016-Feb-07 00:28N 55°33' E 014°22'0 0.0
2016-Feb-06 23:28N 55°33' E 014°22'0 0.0
2016-Feb-06 22:22N 55°33' E 014°22'0 0.0
2016-Feb-06 21:16N 55°33' E 014°22'0 0.0
2016-Feb-06 20:28N 55°33' E 014°22'0 0.0
2016-Feb-06 19:28N 55°33' E 014°22'0 0.0
2016-Feb-06 18:28N 55°33' E 014°21'0 0.0
2016-Feb-06 17:28N 55°33' E 014°22'0 0.0
2016-Feb-06 16:28N 55°33' E 014°22'0 0.0
2016-Feb-06 15:28N 55°33' E 014°22'0 0.0
2016-Feb-06 14:28N 55°33' E 014°22'0 0.0
2016-Feb-06 13:22N 55°33' E 014°22'0 0.0
2016-Feb-06 12:22N 55°33' E 014°22'0 0.0
2016-Feb-06 11:28N 55°33' E 014°22'0 0.0
2016-Feb-06 10:28N 55°33' E 014°22'0 0.0
2016-Feb-06 09:28N 55°33' E 014°22'0 0.0
2016-Feb-06 07:27N 55°33' E 014°22'0 0.0
2016-Feb-06 06:33N 55°33' E 014°22'0 0.0
2016-Feb-06 05:21N 55°33' E 014°22'0 0.0
2016-Feb-06 04:33N 55°33' E 014°22'0 0.0
2016-Feb-06 03:33N 55°33' E 014°22'0 0.0
2016-Feb-06 02:33N 55°33' E 014°22'0 0.0
2016-Feb-06 01:33N 55°33' E 014°22'0 0.0
2016-Feb-06 00:27N 55°33' E 014°22'0 0.0
2016-Feb-05 23:33N 55°33' E 014°22'0 0.0
2016-Feb-05 22:33N 55°33' E 014°22'0 0.0
2016-Feb-05 21:33N 55°33' E 014°22'0 0.0
2016-Feb-05 20:33N 55°33' E 014°22'0 0.0
2016-Feb-05 19:33N 55°33' E 014°22'0 0.0
2016-Feb-05 18:09N 55°33' E 014°22'0 0.0
2016-Feb-05 17:33N 55°33' E 014°22'0 0.0
2016-Feb-05 16:27N 55°33' E 014°22'0 0.0
2016-Feb-05 15:33N 55°33' E 014°22'3 3.3
2016-Feb-05 14:33N 55°33' E 014°27'8 8.0
2016-Feb-05 13:33N 55°32' E 014°41'7 7.4
2016-Feb-05 12:33N 55°31' E 014°54'2 2.1
2016-Feb-05 11:33N 55°30' E 014°58'4 1.9
2016-Feb-05 09:33N 55°30' E 014°51'3 3.3
2016-Feb-05 08:33N 55°31' E 014°46'3 3.1
2016-Feb-05 07:33N 55°32' E 014°40'3 3.3
2016-Feb-05 06:33N 55°34' E 014°36'5 5.1
2016-Feb-05 05:32N 55°34' E 014°27'3 3.1
2016-Feb-05 04:30N 55°33' E 014°22'0 0.0
2016-Feb-05 03:18N 55°33' E 014°22'0 0.0
2016-Feb-05 02:30N 55°33' E 014°22'0 0.0
2016-Feb-05 01:30N 55°33' E 014°22'0 0.0
2016-Feb-05 00:30N 55°33' E 014°22'0 0.0
2016-Feb-04 23:30N 55°33' E 014°22'0 0.0
2016-Feb-04 22:24N 55°33' E 014°22'0 0.0
2016-Feb-04 21:30N 55°33' E 014°22'0 0.0
2016-Feb-04 20:30N 55°33' E 014°22'0 0.0
2016-Feb-04 19:30N 55°33' E 014°22'0 0.0
2016-Feb-04 18:30N 55°33' E 014°22'0 0.0
2016-Feb-04 17:30N 55°33' E 014°22'0 0.0
2016-Feb-04 16:24N 55°33' E 014°22'0 0.0
2016-Feb-04 15:30N 55°33' E 014°22'0 0.0
2016-Feb-04 14:30N 55°33' E 014°22'0 0.0
2016-Feb-04 13:25N 55°33' E 014°22'0 0.0
2016-Feb-04 12:19N 55°33' E 014°22'0 0.0
2016-Feb-04 11:31N 55°33' E 014°22'0 0.0
2016-Feb-04 10:25N 55°33' E 014°22'0 0.0
2016-Feb-04 09:31N 55°33' E 014°22'0 0.0
2016-Feb-04 08:25N 55°33' E 014°22'0 0.0
2016-Feb-04 07:31N 55°33' E 014°22'0 0.0
2016-Feb-04 06:31N 55°33' E 014°22'0 0.0
2016-Feb-04 05:31N 55°33' E 014°22'0 0.0
2016-Feb-04 04:31N 55°33' E 014°22'0 0.0
2016-Feb-04 03:25N 55°33' E 014°22'0 0.0
2016-Feb-04 02:31N 55°33' E 014°22'0 0.0
2016-Feb-04 01:25N 55°33' E 014°22'0 0.0
2016-Feb-04 00:31N 55°33' E 014°22'0 0.0
2016-Feb-03 23:31N 55°33' E 014°22'0 0.0
2016-Feb-03 22:31N 55°33' E 014°22'0 0.0
2016-Feb-03 21:19N 55°33' E 014°22'0 0.0
2016-Feb-03 20:31N 55°33' E 014°22'0 0.0
2016-Feb-03 19:31N 55°33' E 014°22'0 0.0
2016-Feb-03 18:31N 55°33' E 014°22'0 0.0
2016-Feb-03 17:31N 55°33' E 014°22'0 0.0
2016-Feb-03 16:31N 55°33' E 014°22'0 0.0
2016-Feb-03 15:31N 55°33' E 014°22'0 0.0
2016-Feb-03 14:31N 55°33' E 014°22'0 0.0
2016-Feb-03 13:31N 55°33' E 014°22'0 0.0
2016-Feb-03 12:25N 55°33' E 014°22'0 0.0
2016-Feb-03 11:19N 55°33' E 014°22'  
Track history (hours):
 
Tides and Currents Weather Stations Pressure Air Temp Water Temp Dewpoint Dewpoint Depression Visibility Wind Speed Wind Dir Waves Ship Positions

Linzy

Last reported at 2016-Feb-13 10:33 UTC. Time now 2016-Feb-13 10:58 UTC.
Position N 55°33' E 014°22'.

Length 15 m.

Type: Fishing. MMSI: 265507290.

Date/timePositionNaut miles runAvg speedWind from/ knotsBaromVisibWave heightAir tempDewpointWater temp
2016-Feb-13 10:33N 55°33' E 014°22'0 0.0
2016-Feb-13 09:33N 55°33' E 014°22'0 0.0
2016-Feb-13 08:33N 55°33' E 014°22'0 0.0
2016-Feb-13 07:33N 55°33' E 014°22'0 0.0
2016-Feb-13 06:21N 55°33' E 014°22'0 0.0
2016-Feb-13 05:27N 55°33' E 014°22'0 0.0
2016-Feb-13 04:33N 55°33' E 014°22'0 0.0
2016-Feb-13 03:33N 55°33' E 014°22'0 0.0
2016-Feb-13 02:33N 55°33' E 014°22'0 0.0
2016-Feb-13 01:33N 55°33' E 014°22'0 0.0
2016-Feb-13 00:33N 55°33' E 014°22'0 0.0
2016-Feb-12 23:33N 55°33' E 014°22'0 0.0
2016-Feb-12 22:27N 55°33' E 014°22'0 0.0
2016-Feb-12 21:33N 55°33' E 014°22'0 0.0
2016-Feb-12 20:27N 55°33' E 014°22'0 0.0
2016-Feb-12 19:21N 55°33' E 014°22'0 0.0
2016-Feb-12 18:33N 55°33' E 014°22'0 0.0
2016-Feb-12 17:33N 55°33' E 014°22'0 0.0
2016-Feb-12 16:33N 55°33' E 014°22'0 0.0
2016-Feb-12 15:09N 55°33' E 014°22'0 0.0
2016-Feb-12 14:21N 55°33' E 014°22'0 0.0
2016-Feb-12 13:33N 55°33' E 014°22'0 0.0
2016-Feb-12 12:33N 55°33' E 014°22'0 0.0
2016-Feb-12 11:33N 55°33' E 014°22'0 0.0
2016-Feb-12 10:33N 55°33' E 014°22'0 0.0
2016-Feb-12 09:33N 55°33' E 014°22'0 0.0
2016-Feb-12 08:33N 55°33' E 014°22'0 0.0
2016-Feb-12 07:33N 55°33' E 014°22'0 0.0
2016-Feb-12 06:27N 55°33' E 014°22'0 0.0
2016-Feb-12 05:33N 55°33' E 014°22'0 0.0
2016-Feb-12 04:33N 55°33' E 014°22'0 0.0
2016-Feb-12 03:33N 55°33' E 014°22'0 0.0
2016-Feb-12 02:33N 55°33' E 014°22'0 0.0
2016-Feb-12 01:33N 55°33' E 014°22'0 0.0
2016-Feb-12 00:33N 55°33' E 014°22'0 0.0
2016-Feb-11 23:33N 55°33' E 014°22'0 0.0
2016-Feb-11 22:27N 55°33' E 014°22'0 0.0
2016-Feb-11 21:33N 55°33' E 014°22'0 0.0
2016-Feb-11 20:33N 55°33' E 014°22'0 0.0
2016-Feb-11 19:27N 55°33' E 014°22'0 0.0
2016-Feb-11 18:33N 55°33' E 014°22'1 0.6
2016-Feb-11 17:33N 55°34' E 014°22'7 7.4
2016-Feb-11 16:33N 55°35' E 014°35'2 1.9
2016-Feb-11 15:33N 55°34' E 014°38'3 2.9
2016-Feb-11 14:33N 55°33' E 014°43'3 2.9
2016-Feb-11 13:33N 55°32' E 014°47'3 3.0
2016-Feb-11 12:33N 55°30' E 014°52'3 3.0
2016-Feb-11 11:33N 55°30' E 014°57'2 1.8
2016-Feb-11 10:20N 55°29' E 014°54'2 3.1
2016-Feb-11 09:33N 55°30' E 014°50'3 3.1
2016-Feb-11 08:33N 55°31' E 014°45'3 3.2
2016-Feb-11 07:31N 55°33' E 014°40'2 2.5
2016-Feb-11 06:32N 55°35' E 014°37'5 4.9
2016-Feb-11 05:33N 55°34' E 014°29'4 4.1
2016-Feb-11 04:33N 55°33' E 014°22'0 0.0
2016-Feb-11 03:33N 55°33' E 014°22'0 0.0
2016-Feb-11 02:27N 55°33' E 014°22'0 0.0
2016-Feb-11 01:15N 55°33' E 014°22'0 0.0
2016-Feb-11 00:33N 55°33' E 014°22'0 0.0
2016-Feb-10 23:33N 55°33' E 014°22'0 0.0
2016-Feb-10 22:33N 55°33' E 014°22'0 0.0
2016-Feb-10 21:27N 55°33' E 014°22'0 0.0
2016-Feb-10 20:33N 55°33' E 014°22'0 0.0
2016-Feb-10 19:27N 55°33' E 014°22'0 0.0
2016-Feb-10 18:33N 55°33' E 014°22'0 0.0
2016-Feb-10 17:33N 55°33' E 014°22'0 0.0
2016-Feb-10 16:33N 55°33' E 014°22'0 0.0
2016-Feb-10 15:33N 55°33' E 014°22'0 0.0
2016-Feb-10 14:27N 55°33' E 014°22'0 0.0
2016-Feb-10 13:33N 55°33' E 014°22'0 0.0
2016-Feb-10 12:21N 55°33' E 014°22'0 0.0
2016-Feb-10 11:33N 55°33' E 014°22'0 0.0
2016-Feb-10 10:33N 55°33' E 014°22'0 0.0
2016-Feb-10 09:27N 55°33' E 014°22'0 0.0
2016-Feb-10 08:27N 55°33' E 014°22'0 0.0
2016-Feb-10 07:27N 55°33' E 014°22'0 0.0
2016-Feb-10 06:27N 55°33' E 014°22'0 0.0
2016-Feb-10 05:33N 55°33' E 014°22'0 0.0
2016-Feb-10 04:21N 55°33' E 014°22'0 0.0
2016-Feb-10 03:33N 55°33' E 014°22'0 0.0
2016-Feb-10 02:33N 55°33' E 014°22'0 0.0
2016-Feb-10 01:33N 55°33' E 014°22'0 0.0
2016-Feb-10 00:27N 55°33' E 014°22'0 0.0
2016-Feb-09 23:27N 55°33' E 014°22'0 0.0
2016-Feb-09 22:33N 55°33' E 014°22'0 0.0
2016-Feb-09 21:33N 55°33' E 014°22'0 0.0
2016-Feb-09 20:27N 55°33' E 014°22'0 0.0
2016-Feb-09 19:21N 55°33' E 014°22'0 0.0
2016-Feb-09 18:27N 55°33' E 014°22'0 0.0
2016-Feb-09 17:33N 55°33' E 014°22'0 0.0
2016-Feb-09 16:33N 55°33' E 014°22'0 0.0
2016-Feb-09 15:33N 55°33' E 014°22'0 0.0
2016-Feb-09 14:33N 55°33' E 014°22'0 0.0
2016-Feb-09 13:15N 55°33' E 014°22'0 0.0
2016-Feb-09 12:21N 55°33' E 014°22'0 0.0
2016-Feb-09 11:27N 55°33' E 014°22'0 0.0
2016-Feb-09 10:09N 55°33' E 014°22'0 0.0
2016-Feb-09 09:33N 55°33' E 014°22'0 0.0
2016-Feb-09 08:21N 55°33' E 014°22'0 0.0
2016-Feb-09 07:21N 55°33' E 014°22'0 0.0
2016-Feb-09 06:33N 55°33' E 014°22'0 0.0
2016-Feb-09 05:33N 55°33' E 014°22'0 0.0
2016-Feb-09 04:33N 55°33' E 014°22'0 0.0
2016-Feb-09 03:33N 55°33' E 014°22'0 0.0
2016-Feb-09 02:33N 55°33' E 014°22'0 0.0
2016-Feb-09 01:33N 55°33' E 014°22'0 0.0
2016-Feb-09 00:33N 55°33' E 014°22'0 0.0
2016-Feb-08 23:33N 55°33' E 014°22'0 0.0
2016-Feb-08 22:33N 55°33' E 014°22'0 0.0
2016-Feb-08 21:21N 55°33' E 014°22'0 0.0
2016-Feb-08 20:33N 55°33' E 014°22'0 0.0
2016-Feb-08 19:33N 55°33' E 014°22'0 0.0
2016-Feb-08 18:27N 55°33' E 014°22'0 0.0
2016-Feb-08 17:33N 55°33' E 014°22'0 0.0
2016-Feb-08 15:27N 55°33' E 014°22'0 0.0
2016-Feb-08 14:33N 55°33' E 014°22'0 0.0
2016-Feb-08 13:21N 55°33' E 014°22'0 0.0
2016-Feb-08 12:15N 55°33' E 014°22'0 0.0
2016-Feb-08 11:27N 55°33' E 014°22'0 0.0
2016-Feb-08 10:33N 55°33' E 014°22'0 0.0
2016-Feb-08 09:16N 55°33' E 014°22'0 0.0
2016-Feb-08 08:34N 55°33' E 014°22'0 0.0
2016-Feb-08 07:34N 55°33' E 014°22'0 0.0
2016-Feb-08 06:28N 55°33' E 014°22'0 0.0
2016-Feb-08 05:22N 55°33' E 014°22'0 0.0
2016-Feb-08 04:28N 55°33' E 014°22'0 0.0
2016-Feb-08 03:28N 55°33' E 014°22'0 0.0
2016-Feb-08 02:28N 55°33' E 014°22'0 0.0
2016-Feb-08 01:28N 55°33' E 014°22'0 0.0
2016-Feb-08 00:28N 55°33' E 014°22'0 0.0
2016-Feb-07 23:28N 55°33' E 014°22'0 0.0
2016-Feb-07 22:28N 55°33' E 014°22'0 0.0
2016-Feb-07 21:28N 55°33' E 014°22'0 0.0
2016-Feb-07 20:28N 55°33' E 014°22'0 0.0
2016-Feb-07 19:28N 55°33' E 014°22'0 0.0
2016-Feb-07 18:28N 55°33' E 014°22'0 0.0
2016-Feb-07 17:28N 55°33' E 014°22'0 0.0
2016-Feb-07 16:28N 55°33' E 014°22'0 0.0
2016-Feb-07 15:28N 55°33' E 014°22'0 0.0
2016-Feb-07 14:28N 55°33' E 014°22'0 0.0
2016-Feb-07 13:28N 55°33' E 014°22'0 0.0
2016-Feb-07 11:22N 55°33' E 014°22'0 0.0
2016-Feb-07 10:22N 55°33' E 014°22'0 0.0
2016-Feb-07 09:28N 55°33' E 014°22'0 0.0
2016-Feb-07 08:16N 55°33' E 014°22'0 0.0
2016-Feb-07 07:28N 55°33' E 014°22'0 0.0
2016-Feb-07 06:28N 55°33' E 014°22'0 0.0
2016-Feb-07 05:28N 55°33' E 014°22'0 0.0
2016-Feb-07 04:28N 55°33' E 014°22'0 0.0
2016-Feb-07 03:28N 55°33' E 014°22'0 0.0
2016-Feb-07 02:28N 55°33' E 014°22'0 0.0
2016-Feb-07 01:28N 55°33' E 014°22'0 0.0
2016-Feb-07 00:28N 55°33' E 014°22'0 0.0
2016-Feb-06 23:28N 55°33' E 014°22'0 0.0
2016-Feb-06 22:22N 55°33' E 014°22'0 0.0
2016-Feb-06 21:16N 55°33' E 014°22'0 0.0
2016-Feb-06 20:28N 55°33' E 014°22'0 0.0
2016-Feb-06 19:28N 55°33' E 014°22'0 0.0
2016-Feb-06 18:28N 55°33' E 014°21'0 0.0
2016-Feb-06 17:28N 55°33' E 014°22'0 0.0
2016-Feb-06 16:28N 55°33' E 014°22'0 0.0
2016-Feb-06 15:28N 55°33' E 014°22'0 0.0
2016-Feb-06 14:28N 55°33' E 014°22'0 0.0
2016-Feb-06 13:22N 55°33' E 014°22'0 0.0
2016-Feb-06 12:22N 55°33' E 014°22'0 0.0
2016-Feb-06 11:28N 55°33' E 014°22'0 0.0
2016-Feb-06 10:28N 55°33' E 014°22'0 0.0
2016-Feb-06 09:28N 55°33' E 014°22'0 0.0
2016-Feb-06 07:27N 55°33' E 014°22'0 0.0
2016-Feb-06 06:33N 55°33' E 014°22'0 0.0
2016-Feb-06 05:21N 55°33' E 014°22'0 0.0
2016-Feb-06 04:33N 55°33' E 014°22'0 0.0
2016-Feb-06 03:33N 55°33' E 014°22'0 0.0
2016-Feb-06 02:33N 55°33' E 014°22'0 0.0
2016-Feb-06 01:33N 55°33' E 014°22'0 0.0
2016-Feb-06 00:27N 55°33' E 014°22'0 0.0
2016-Feb-05 23:33N 55°33' E 014°22'0 0.0
2016-Feb-05 22:33N 55°33' E 014°22'0 0.0
2016-Feb-05 21:33N 55°33' E 014°22'0 0.0
2016-Feb-05 20:33N 55°33' E 014°22'0 0.0
2016-Feb-05 19:33N 55°33' E 014°22'0 0.0
2016-Feb-05 18:09N 55°33' E 014°22'0 0.0
2016-Feb-05 17:33N 55°33' E 014°22'0 0.0
2016-Feb-05 16:27N 55°33' E 014°22'0 0.0
2016-Feb-05 15:33N 55°33' E 014°22'3 3.3
2016-Feb-05 14:33N 55°33' E 014°27'8 8.0
2016-Feb-05 13:33N 55°32' E 014°41'7 7.4
2016-Feb-05 12:33N 55°31' E 014°54'2 2.1
2016-Feb-05 11:33N 55°30' E 014°58'4 1.9
2016-Feb-05 09:33N 55°30' E 014°51'3 3.3
2016-Feb-05 08:33N 55°31' E 014°46'3 3.1
2016-Feb-05 07:33N 55°32' E 014°40'3 3.3
2016-Feb-05 06:33N 55°34' E 014°36'5 5.1
2016-Feb-05 05:32N 55°34' E 014°27'3 3.1
2016-Feb-05 04:30N 55°33' E 014°22'0 0.0
2016-Feb-05 03:18N 55°33' E 014°22'0 0.0
2016-Feb-05 02:30N 55°33' E 014°22'0 0.0
2016-Feb-05 01:30N 55°33' E 014°22'0 0.0
2016-Feb-05 00:30N 55°33' E 014°22'0 0.0
2016-Feb-04 23:30N 55°33' E 014°22'0 0.0
2016-Feb-04 22:24N 55°33' E 014°22'0 0.0
2016-Feb-04 21:30N 55°33' E 014°22'0 0.0
2016-Feb-04 20:30N 55°33' E 014°22'0 0.0
2016-Feb-04 19:30N 55°33' E 014°22'0 0.0
2016-Feb-04 18:30N 55°33' E 014°22'0 0.0
2016-Feb-04 17:30N 55°33' E 014°22'0 0.0
2016-Feb-04 16:24N 55°33' E 014°22'0 0.0
2016-Feb-04 15:30N 55°33' E 014°22'0 0.0
2016-Feb-04 14:30N 55°33' E 014°22'0 0.0
2016-Feb-04 13:25N 55°33' E 014°22'0 0.0
2016-Feb-04 12:19N 55°33' E 014°22'0 0.0
2016-Feb-04 11:31N 55°33' E 014°22'0 0.0
2016-Feb-04 10:25N 55°33' E 014°22'0 0.0
2016-Feb-04 09:31N 55°33' E 014°22'0 0.0
2016-Feb-04 08:25N 55°33' E 014°22'0 0.0
2016-Feb-04 07:31N 55°33' E 014°22'0 0.0
2016-Feb-04 06:31N 55°33' E 014°22'0 0.0
2016-Feb-04 05:31N 55°33' E 014°22'0 0.0
2016-Feb-04 04:31N 55°33' E 014°22'0 0.0
2016-Feb-04 03:25N 55°33' E 014°22'0 0.0
2016-Feb-04 02:31N 55°33' E 014°22'0 0.0
2016-Feb-04 01:25N 55°33' E 014°22'0 0.0
2016-Feb-04 00:31N 55°33' E 014°22'0 0.0
2016-Feb-03 23:31N 55°33' E 014°22'0 0.0
2016-Feb-03 22:31N 55°33' E 014°22'0 0.0
2016-Feb-03 21:19N 55°33' E 014°22'0 0.0
2016-Feb-03 20:31N 55°33' E 014°22'0 0.0
2016-Feb-03 19:31N 55°33' E 014°22'0 0.0
2016-Feb-03 18:31N 55°33' E 014°22'0 0.0
2016-Feb-03 17:31N 55°33' E 014°22'0 0.0
2016-Feb-03 16:31N 55°33' E 014°22'0 0.0
2016-Feb-03 15:31N 55°33' E 014°22'0 0.0
2016-Feb-03 14:31N 55°33' E 014°22'0 0.0
2016-Feb-03 13:31N 55°33' E 014°22'0 0.0
2016-Feb-03 12:25N 55°33' E 014°22'0 0.0
2016-Feb-03 11:19N 55°33' E 014°22'  

Dump ship's entire track history